Time;durP1;ratioP1;P1;durP2;ratioP2;P2;SDS_P1;SDS_P2;PMS_P1;PMS_P2;Temp;Humidity;BMP_temperature;BMP_pressure;BME280_temperature;BME280_humidity;BME280_pressure;Samples;Min_cycle;Max_cycle;Signal;HPM_P1;HPM_P2
2022/04/11 00:00:32;;;;;;;;;6.75;5.00;;;;;10.44;49.20;101413.38;2440606;28;46545;-87
2022/04/11 00:01:43;;;;;;;;;7.25;5.75;;;;;10.42;49.65;101407.31;2443313;28;45267;-87
2022/04/11 00:02:54;;;;;;;;;6.50;6.25;;;;;10.42;50.06;101409.94;2446778;28;45485;-82
2022/04/11 00:04:04;;;;;;;;;6.50;6.50;;;;;10.41;49.61;101405.56;2441912;28;45224;-83
2022/04/11 00:05:14;;;;;;;;;5.75;5.75;;;;;10.43;49.69;101416.91;2445626;27;46454;-83
2022/04/11 00:06:25;;;;;;;;;6.00;6.00;;;;;10.41;49.33;101413.44;2441570;28;45411;-83
2022/04/11 00:07:35;;;;;;;;;7.50;7.25;;;;;10.42;49.65;101415.19;2441432;28;46446;-81
2022/04/11 00:08:46;;;;;;;;;6.50;5.50;;;;;10.42;49.73;101417.81;2441755;28;45268;-83
2022/04/11 00:09:56;;;;;;;;;6.75;5.75;;;;;10.40;49.42;101415.19;2449165;28;48303;-87
2022/04/11 00:11:07;;;;;;;;;5.75;5.75;;;;;10.40;49.55;101407.31;2444216;28;45192;-88
2022/04/11 00:12:17;;;;;;;;;11.00;7.25;;;;;10.40;50.12;101415.19;2444515;28;45241;-88
2022/04/11 00:13:28;;;;;;;;;6.25;5.00;;;;;10.38;50.24;101408.25;2450297;28;45421;-88
2022/04/11 00:14:38;;;;;;;;;6.25;5.25;;;;;10.38;49.72;101413.50;2450700;28;46278;-82
2022/04/11 00:15:48;;;;;;;;;6.75;6.50;;;;;10.35;49.84;101410.03;2460315;27;45266;-82
2022/04/11 00:16:59;;;;;;;;;9.75;8.75;;;;;10.35;50.21;101412.69;2459611;27;46898;-83
2022/04/11 00:18:09;;;;;;;;;7.00;7.00;;;;;10.34;49.85;101410.97;2448253;28;45233;-82
2022/04/11 00:19:19;;;;;;;;;7.25;6.75;;;;;10.33;49.90;101414.47;2441427;28;45277;-82
2022/04/11 00:20:31;;;;;;;;;7.75;7.75;;;;;10.35;50.32;101414.44;2441298;28;45185;-82
2022/04/11 00:21:42;;;;;;;;;6.00;6.00;;;;;10.32;49.81;101404.00;2450843;28;46585;-82
2022/04/11 00:22:52;;;;;;;;;7.00;7.00;;;;;10.32;49.88;101410.09;2442704;28;45250;-82
2022/04/11 00:24:02;;;;;;;;;6.75;6.75;;;;;10.31;50.06;101405.75;2433605;28;48320;-81
2022/04/11 00:25:13;;;;;;;;;6.00;5.25;;;;;10.30;50.17;101404.03;2441039;28;44768;-82
2022/04/11 00:26:23;;;;;;;;;7.25;7.25;;;;;10.31;49.50;101405.75;2440632;28;48294;-82
2022/04/11 00:27:33;;;;;;;;;6.50;6.00;;;;;10.29;50.14;101404.06;2443526;28;45160;-82
2022/04/11 00:28:44;;;;;;;;;9.50;6.50;;;;;10.26;49.74;101397.13;2447433;28;48225;-82
2022/04/11 00:29:54;;;;;;;;;10.00;7.00;;;;;10.27;50.12;101398.84;2443475;28;45348;-82
2022/04/11 00:31:04;;;;;;;;;6.25;6.25;;;;;10.27;50.26;101401.47;2453340;27;47304;-83
2022/04/11 00:32:15;;;;;;;;;6.50;5.25;;;;;10.24;50.07;101391.91;2450925;28;44680;-82
2022/04/11 00:33:25;;;;;;;;;6.25;6.25;;;;;10.25;50.48;101398.00;2440967;28;46860;-83
2022/04/11 00:34:35;;;;;;;;;8.00;6.75;;;;;10.24;50.16;101386.66;2449166;27;45449;-85
2022/04/11 00:35:46;;;;;;;;;5.00;5.00;;;;;10.23;50.19;101379.66;2449276;28;47262;-85
2022/04/11 00:36:57;;;;;;;;;9.00;8.00;;;;;10.24;50.06;101383.16;2450818;28;45449;-85
2022/04/11 00:38:07;;;;;;;;;6.00;5.50;;;;;10.21;50.18;101377.94;2442381;28;47960;-85
2022/04/11 00:39:17;;;;;;;;;8.00;7.50;;;;;10.21;50.10;101376.19;2445844;28;45338;-85
2022/04/11 00:40:28;;;;;;;;;5.50;5.25;;;;;10.21;50.42;101380.56;2450226;27;46609;-85
2022/04/11 00:41:38;;;;;;;;;9.00;7.00;;;;;10.20;50.48;101368.31;2440622;28;45169;-81
2022/04/11 00:42:49;;;;;;;;;6.00;6.00;;;;;10.21;50.70;101380.56;2439883;28;46971;-80
2022/04/11 00:44:00;;;;;;;;;6.00;6.00;;;;;10.19;50.43;101359.59;2450511;28;45227;-80
2022/04/11 00:45:10;;;;;;;;;7.25;6.00;;;;;10.17;50.12;101364.03;2451128;27;46522;-80
2022/04/11 00:46:20;;;;;;;;;9.00;9.00;;;;;10.16;50.57;101358.78;2451044;27;45370;-80
2022/04/11 00:47:31;;;;;;;;;7.00;6.75;;;;;10.15;50.65;101357.06;2450603;27;46428;-81
2022/04/11 00:48:41;;;;;;;;;8.50;7.25;;;;;10.12;50.87;101347.50;2451084;27;45133;-81
2022/04/11 00:49:59;;;;;;;;;9.50;8.25;;;;;10.09;50.70;101348.44;2447410;28;47509;-81
2022/04/11 00:51:14;;;;;;;;;7.50;7.00;;;;;10.08;50.71;101348.44;2446694;28;44808;-81
2022/04/11 00:52:25;;;;;;;;;5.50;5.50;;;;;10.08;51.07;101351.06;2441284;28;45385;-81
2022/04/11 00:53:43;;;;;;;;;7.50;6.00;;;;;10.06;51.17;101351.09;2450113;27;45331;-80
2022/04/11 00:54:53;;;;;;;;;9.25;8.00;;;;;10.05;51.35;101344.13;2441315;28;45405;-81
2022/04/11 00:56:07;;;;;;;;;7.50;7.00;;;;;10.02;51.19;101345.03;2441234;28;45273;-81
2022/04/11 00:57:19;;;;;;;;;5.00;5.00;;;;;10.01;50.90;101343.31;2441195;28;46580;-81
2022/04/11 00:58:30;;;;;;;;;6.75;6.75;;;;;10.00;51.29;101346.84;2440891;28;45477;-81
2022/04/11 00:59:41;;;;;;;;;6.25;6.00;;;;;9.99;50.79;101339.00;2441292;28;45254;-81
2022/04/11 01:00:53;;;;;;;;;6.25;5.75;;;;;9.98;51.04;101337.25;2441802;28;45542;-80
2022/04/11 01:02:05;;;;;;;;;5.25;5.25;;;;;9.97;51.10;101330.28;2448174;28;46257;-81
2022/04/11 01:03:15;;;;;;;;;7.75;6.75;;;;;9.95;51.34;101332.09;2450256;28;44660;-81
2022/04/11 01:04:27;;;;;;;;;10.00;5.25;;;;;9.94;50.96;101325.97;2447707;28;45323;-81
2022/04/11 01:05:37;;;;;;;;;7.00;7.00;;;;;9.93;51.11;101328.59;2441085;28;45270;-81
2022/04/11 01:06:48;;;;;;;;;6.50;5.25;;;;;9.93;51.08;101333.84;2447784;28;47231;-81
2022/04/11 01:08:06;;;;;;;;;7.25;6.00;;;;;9.90;51.46;101327.78;2450571;28;44650;-81
2022/04/11 01:09:17;;;;;;;;;7.00;7.00;;;;;9.89;51.13;101323.44;2449975;27;45638;-81
2022/04/11 01:10:27;;;;;;;;;6.75;6.75;;;;;9.85;51.42;101313.88;2443534;28;44704;-81
2022/04/11 01:11:38;;;;;;;;;7.50;7.50;;;;;9.86;51.42;101320.88;2441983;27;45274;-81
2022/04/11 01:12:48;;;;;;;;;7.00;7.00;;;;;9.84;51.26;101314.78;2442260;27;45397;-81
2022/04/11 01:13:59;;;;;;;;;9.25;8.75;;;;;9.82;51.37;101313.09;2447594;28;47309;-81
2022/04/11 01:15:09;;;;;;;;;6.00;6.00;;;;;9.80;51.41;101313.13;2440846;28;45195;-81
2022/04/11 01:16:29;;;;;;;;;6.00;6.00;;;;;9.78;51.27;101307.03;2452013;27;46636;-81
2022/04/11 01:17:41;;;;;;;;;6.75;6.75;;;;;9.76;51.58;101314.06;2449837;27;44591;-81
2022/04/11 01:18:51;;;;;;;;;7.00;6.00;;;;;9.73;51.40;101295.78;2441049;28;45421;-81
2022/04/11 01:20:13;;;;;;;;;9.00;7.25;;;;;9.72;52.03;101301.91;2441154;28;45203;-81
2022/04/11 01:21:27;;;;;;;;;9.00;7.25;;;;;9.70;51.68;101301.09;2441192;28;47408;-81
2022/04/11 01:22:42;;;;;;;;;9.75;8.50;;;;;9.69;51.65;101300.22;2442153;28;45253;-81
2022/04/11 01:23:52;;;;;;;;;9.75;7.75;;;;;9.64;51.92;101292.44;2441231;28;48256;-84
2022/04/11 01:25:03;;;;;;;;;11.00;9.75;;;;;9.65;52.28;101295.94;2450596;28;45420;-83
2022/04/11 01:26:15;;;;;;;;;8.75;7.75;;;;;9.62;51.51;101288.97;2443623;27;46263;-86
2022/04/11 01:27:26;;;;;;;;;6.75;6.75;;;;;9.63;51.49;101295.94;2441135;28;45499;-81
2022/04/11 01:28:37;;;;;;;;;7.75;7.00;;;;;9.63;51.92;101287.22;2439961;28;47892;-83
2022/04/11 01:29:48;;;;;;;;;9.75;8.75;;;;;9.61;52.07;101289.00;2433339;28;45263;-82
2022/04/11 01:30:58;;;;;;;;;6.75;6.75;;;;;9.59;52.22;101289.03;2441848;28;46194;-82
2022/04/11 01:32:09;;;;;;;;;8.75;8.00;;;;;9.59;51.99;101285.53;2441174;28;45248;-82
2022/04/11 01:33:27;;;;;;;;;5.25;5.25;;;;;9.56;51.99;101287.34;2441014;28;45205;-82
2022/04/11 01:34:37;;;;;;;;;8.25;5.00;;;;;9.54;51.76;101281.25;2441139;28;45330;-82
2022/04/11 01:35:47;;;;;;;;;5.50;5.50;;;;;9.53;51.88;101284.75;2440005;28;47293;-82
2022/04/11 01:36:58;;;;;;;;;8.00;7.00;;;;;9.52;52.07;101277.81;2440407;28;45323;-82
2022/04/11 01:38:08;;;;;;;;;5.75;4.50;;;;;9.51;52.14;101280.44;2442375;28;47475;-81
2022/04/11 01:39:18;;;;;;;;;8.00;7.00;;;;;9.49;51.78;101275.22;2439058;28;44690;-80
2022/04/11 01:40:29;;;;;;;;;6.00;6.00;;;;;9.50;51.72;101283.97;2442125;28;46675;-80
2022/04/11 01:41:39;;;;;;;;;9.50;7.00;;;;;9.49;52.29;101280.47;2443078;28;45219;-80
2022/04/11 01:42:49;;;;;;;;;8.00;7.25;;;;;9.48;51.90;101275.28;2442595;28;45233;-81
2022/04/11 01:44:00;;;;;;;;;7.75;6.50;;;;;9.47;51.92;101273.53;2441621;28;45303;-81
2022/04/11 01:45:11;;;;;;;;;8.00;6.75;;;;;9.45;52.23;101271.81;2441896;28;47239;-81
2022/04/11 01:46:22;;;;;;;;;7.00;7.00;;;;;9.44;52.33;101272.69;2442139;28;44665;-82
2022/04/11 01:47:32;;;;;;;;;7.00;6.25;;;;;9.43;52.34;101272.75;2448576;28;45235;-82
2022/04/11 01:48:42;;;;;;;;;6.75;6.75;;;;;9.41;51.98;101269.25;2449575;28;45172;-83
2022/04/11 01:49:53;;;;;;;;;6.50;5.75;;;;;9.40;51.98;101268.41;2442054;28;45502;-82
2022/04/11 01:51:04;;;;;;;;;10.50;6.50;;;;;9.39;52.40;101271.94;2448095;28;45156;-83
2022/04/11 01:52:14;;;;;;;;;7.75;7.50;;;;;9.37;52.38;101268.47;2442503;28;45453;-82
2022/04/11 01:53:24;;;;;;;;;5.00;5.00;;;;;9.36;52.36;101266.72;2446138;28;45375;-82
2022/04/11 01:54:35;;;;;;;;;8.75;6.75;;;;;9.34;52.14;101266.78;2438591;28;48199;-83
2022/04/11 01:55:46;;;;;;;;;6.00;5.00;;;;;9.34;51.96;101261.53;2444325;28;45185;-83
2022/04/11 01:56:56;;;;;;;;;6.00;5.00;;;;;9.33;52.15;101265.03;2452372;27;45798;-83
2022/04/11 01:58:08;;;;;;;;;6.75;6.00;;;;;9.32;51.72;101260.69;2451472;28;45305;-82
2022/04/11 01:59:19;;;;;;;;;6.75;5.25;;;;;9.31;52.50;101261.56;2453623;27;47113;-82
2022/04/11 02:00:29;;;;;;;;;7.00;5.25;;;;;9.31;52.32;101258.09;2450850;28;45250;-82
2022/04/11 02:01:40;;;;;;;;;7.00;7.00;;;;;9.30;52.28;101269.47;2451454;28;48412;-82
2022/04/11 02:02:50;;;;;;;;;8.00;5.75;;;;;9.28;52.47;101264.28;2443695;28;45242;-82
2022/04/11 02:04:01;;;;;;;;;5.75;5.75;;;;;9.27;52.47;101256.41;2442075;28;45270;-86
2022/04/11 02:05:11;;;;;;;;;8.00;6.50;;;;;9.26;52.21;101255.53;2442391;28;45232;-85
2022/04/11 02:06:22;;;;;;;;;8.25;5.75;;;;;9.25;52.29;101264.31;2442337;28;45239;-85
2022/04/11 02:07:33;;;;;;;;;7.75;7.75;;;;;9.23;52.35;101250.38;2442768;28;45208;-85
2022/04/11 02:08:43;;;;;;;;;5.00;5.00;;;;;9.21;52.12;101254.78;2450682;28;48113;-85
2022/04/11 02:09:53;;;;;;;;;5.25;5.25;;;;;9.21;53.11;101247.75;2436891;28;45310;-85
2022/04/11 02:11:04;;;;;;;;;7.50;6.00;;;;;9.20;53.00;101251.31;2444752;28;46208;-85
2022/04/11 02:12:14;;;;;;;;;6.50;6.50;;;;;9.20;52.93;101250.44;2448631;28;45260;-85
2022/04/11 02:13:24;;;;;;;;;5.00;4.25;;;;;9.19;52.60;101254.81;2450921;28;47306;-85
2022/04/11 02:14:34;;;;;;;;;7.50;5.00;;;;;9.18;52.68;101255.72;2454248;27;44644;-85
2022/04/11 02:15:45;;;;;;;;;5.75;5.75;;;;;9.16;52.33;101252.22;2451995;27;47349;-85
2022/04/11 02:16:55;;;;;;;;;6.25;5.00;;;;;9.16;52.32;101254.00;2449288;28;45387;-85
2022/04/11 02:18:06;;;;;;;;;6.75;5.00;;;;;9.14;52.40;101255.78;2451667;28;45446;-85
2022/04/11 02:19:16;;;;;;;;;5.75;4.75;;;;;9.15;52.09;101244.41;2450136;27;44679;-85
2022/04/11 02:20:27;;;;;;;;;4.75;4.75;;;;;9.14;52.66;101242.66;2442560;28;45414;-81
2022/04/11 02:21:37;;;;;;;;;3.00;3.00;;;;;9.15;52.09;101237.41;2444313;28;45291;-82
2022/04/11 02:22:54;;;;;;;;;6.00;3.50;;;;;9.15;51.70;101242.66;2449411;27;46584;-82
2022/04/11 02:24:05;;;;;;;;;4.00;4.00;;;;;9.15;52.36;101234.78;2442385;28;45425;-83
2022/04/11 02:25:17;;;;;;;;;5.00;5.00;;;;;9.15;52.33;101232.16;2441423;28;48088;-83
2022/04/11 02:26:27;;;;;;;;;3.25;3.25;;;;;9.16;51.80;101233.88;2441880;28;44705;-83
2022/04/11 02:27:37;;;;;;;;;4.00;4.00;;;;;9.15;51.99;101224.28;2442346;28;45375;-87
2022/04/11 02:28:48;;;;;;;;;4.25;4.00;;;;;9.16;52.65;101228.63;2442136;28;45239;-88
2022/04/11 02:29:58;;;;;;;;;6.00;5.00;;;;;9.18;52.40;101226.88;2442621;28;46477;-88
2022/04/11 02:31:08;;;;;;;;;5.50;4.00;;;;;9.17;52.02;101225.13;2445892;28;45231;-88
2022/04/11 02:32:19;;;;;;;;;4.00;4.00;;;;;9.17;52.36;101225.13;2450950;28;46361;-88
2022/04/11 02:33:29;;;;;;;;;4.00;4.00;;;;;9.20;52.43;101229.44;2442645;28;44601;-88
2022/04/11 02:34:39;;;;;;;;;3.75;3.75;;;;;9.20;52.56;101222.44;2447860;28;47373;-87
2022/04/11 02:35:50;;;;;;;;;5.50;4.50;;;;;9.20;52.13;101229.44;2448998;28;45278;-87
2022/04/11 02:37:00;;;;;;;;;4.50;4.50;;;;;9.21;52.36;101226.78;2444879;28;47408;-88
2022/04/11 02:38:11;;;;;;;;;5.00;4.00;;;;;9.21;52.64;101225.94;2444994;28;45505;-90
2022/04/11 02:39:21;;;;;;;;;4.00;4.00;;;;;9.22;52.48;101228.53;2451438;27;46107;-91
2022/04/11 02:40:32;;;;;;;;;3.50;3.50;;;;;9.21;52.29;101216.28;2441743;28;45252;-88
2022/04/11 02:41:43;;;;;;;;;3.00;3.00;;;;;9.23;51.81;101222.38;2450239;28;47714;-88
2022/04/11 02:42:53;;;;;;;;;5.00;3.00;;;;;9.25;52.03;101231.97;2444315;28;45494;-86
2022/04/11 02:44:03;;;;;;;;;4.00;4.00;;;;;9.23;51.72;101216.28;2451188;28;46458;-86
2022/04/11 02:45:15;;;;;;;;;5.00;3.75;;;;;9.23;51.52;101221.53;2451867;27;45332;-86
2022/04/11 02:46:25;;;;;;;;;5.00;4.75;;;;;9.23;52.27;101218.91;2451042;28;47233;-86
2022/04/11 02:47:36;;;;;;;;;4.75;4.75;;;;;9.23;52.39;101217.13;2443865;28;45473;-86
2022/04/11 02:48:46;;;;;;;;;4.50;4.50;;;;;9.23;51.69;101214.50;2438890;28;46992;-86
2022/04/11 02:49:57;;;;;;;;;6.25;3.00;;;;;9.23;51.59;101221.53;2448415;28;44684;-87
2022/04/11 02:51:07;;;;;;;;;4.75;4.75;;;;;9.22;51.36;101214.53;2444626;28;48751;-87
2022/04/11 02:52:18;;;;;;;;;4.00;4.00;;;;;9.25;51.72;101216.25;2451600;28;45301;-86
2022/04/11 02:53:28;;;;;;;;;4.25;3.50;;;;;9.24;51.82;101215.38;2460952;27;48119;-86
2022/04/11 02:54:39;;;;;;;;;4.00;3.50;;;;;9.23;51.00;101209.25;2451292;28;45238;-86
2022/04/11 02:55:49;;;;;;;;;5.00;4.00;;;;;9.23;51.44;101198.75;2451372;28;45721;-86
2022/04/11 02:57:00;;;;;;;;;6.00;4.50;;;;;9.21;51.18;101197.09;2451377;28;44696;-86
2022/04/11 02:58:10;;;;;;;;;4.00;4.00;;;;;9.22;51.23;101202.28;2447193;28;46958;-89
2022/04/11 02:59:21;;;;;;;;;3.25;3.25;;;;;9.22;51.56;101202.28;2449535;28;44715;-91
2022/04/11 03:00:31;;;;;;;;;6.75;4.50;;;;;9.21;51.94;101183.97;2442723;27;46311;-91
2022/04/11 03:01:41;;;;;;;;;3.00;3.00;;;;;9.21;51.42;101190.06;2447476;28;45259;-92
2022/04/11 03:02:52;;;;;;;;;5.75;4.00;;;;;9.18;51.86;101186.66;2451978;28;45592;-86
2022/04/11 03:04:02;;;;;;;;;3.25;3.25;;;;;9.19;51.44;101189.22;2452135;28;44560;-85
2022/04/11 03:05:13;;;;;;;;;5.00;5.00;;;;;9.22;51.79;101191.81;2450848;28;46154;-84
2022/04/11 03:06:23;;;;;;;;;4.00;4.00;;;;;9.21;51.69;101189.22;2451361;28;45334;-84
2022/04/11 03:07:34;;;;;;;;;4.50;4.50;;;;;9.20;51.41;101177.84;2450737;28;47362;-86
2022/04/11 03:08:44;;;;;;;;;5.25;5.25;;;;;9.20;51.36;101182.22;2441471;28;44736;-86
2022/04/11 03:09:55;;;;;;;;;4.00;4.00;;;;;9.21;51.60;101173.50;2447775;28;47308;-86
2022/04/11 03:11:05;;;;;;;;;6.00;4.50;;;;;9.20;51.55;101177.00;2448176;28;45341;-85
2022/04/11 03:12:16;;;;;;;;;4.00;4.00;;;;;9.21;51.88;101178.72;2441278;28;47878;-85
2022/04/11 03:13:26;;;;;;;;;3.25;3.25;;;;;9.21;50.96;101181.34;2445730;28;44764;-80
2022/04/11 03:14:37;;;;;;;;;6.00;5.75;;;;;9.20;51.14;101180.47;2445956;28;46307;-86
2022/04/11 03:15:47;;;;;;;;;3.50;3.00;;;;;9.20;51.67;101177.84;2443234;27;45313;-87
2022/04/11 03:16:58;;;;;;;;;3.00;3.00;;;;;9.20;51.10;101163.88;2443075;27;46062;-86
2022/04/11 03:18:08;;;;;;;;;4.00;3.50;;;;;9.20;51.39;101167.38;2442178;28;45239;-90
2022/04/11 03:19:19;;;;;;;;;5.50;4.50;;;;;9.19;51.18;101163.00;2441025;28;48179;-86
2022/04/11 03:20:30;;;;;;;;;4.75;4.00;;;;;9.18;51.87;101163.91;2441459;28;45514;-86
2022/04/11 03:21:40;;;;;;;;;4.00;4.00;;;;;9.18;51.75;101163.91;2441909;28;45437;-83
2022/04/11 03:22:51;;;;;;;;;4.25;4.25;;;;;9.19;51.61;101159.50;2441499;28;45220;-84
2022/04/11 03:24:01;;;;;;;;;5.00;3.75;;;;;9.19;51.21;101162.13;2440943;28;48498;-84
2022/04/11 03:25:12;;;;;;;;;5.00;4.00;;;;;9.19;51.10;101170.00;2443803;28;45312;-83
2022/04/11 03:26:22;;;;;;;;;4.00;4.00;;;;;9.19;51.38;101159.50;2440105;28;46847;-84
2022/04/11 03:27:32;;;;;;;;;7.00;5.00;;;;;9.19;51.09;101164.75;2441697;28;45298;-84
2022/04/11 03:28:43;;;;;;;;;4.75;4.00;;;;;9.19;51.57;101172.63;2451431;27;46117;-84
2022/04/11 03:29:53;;;;;;;;;4.25;3.75;;;;;9.19;51.39;101176.13;2451837;27;44813;-84
2022/04/11 03:31:03;;;;;;;;;4.75;4.75;;;;;9.19;51.83;101170.88;2451543;27;45318;-80
2022/04/11 03:32:14;;;;;;;;;4.00;4.00;;;;;9.18;51.62;101171.78;2450958;28;45374;-80
2022/04/11 03:33:24;;;;;;;;;4.00;4.00;;;;;9.17;51.27;101170.03;2450634;28;45314;-80
2022/04/11 03:34:35;;;;;;;;;3.25;3.25;;;;;9.17;51.66;101166.56;2447679;28;45338;-80
2022/04/11 03:35:45;;;;;;;;;6.75;4.75;;;;;9.17;51.02;101172.66;2443780;28;46934;-80
2022/04/11 03:36:55;;;;;;;;;4.50;4.50;;;;;9.17;50.76;101172.66;2451123;28;45345;-80
2022/04/11 03:38:06;;;;;;;;;6.00;5.00;;;;;9.17;51.29;101175.28;2447086;27;45704;-80
2022/04/11 03:39:16;;;;;;;;;6.00;5.50;;;;;9.16;51.12;101175.34;2441951;28;45275;-80
2022/04/11 03:40:27;;;;;;;;;5.00;4.25;;;;;9.16;51.13;101177.97;2440995;28;48135;-81
2022/04/11 03:41:37;;;;;;;;;6.00;5.00;;;;;9.14;51.10;101177.09;2447608;28;45231;-85
2022/04/11 03:42:47;;;;;;;;;5.00;5.00;;;;;9.15;51.54;101177.09;2450864;28;45291;-85
2022/04/11 03:43:58;;;;;;;;;5.00;5.00;;;;;9.15;51.37;101171.84;2451552;27;45465;-86
2022/04/11 03:45:10;;;;;;;;;3.25;3.00;;;;;9.15;50.94;101169.22;2442600;27;45768;-85
2022/04/11 03:46:21;;;;;;;;;5.00;5.00;;;;;9.14;50.55;101162.22;2441270;28;45192;-85
2022/04/11 03:47:32;;;;;;;;;3.75;3.75;;;;;9.15;51.05;101163.09;2441306;28;46437;-86
2022/04/11 03:48:42;;;;;;;;;5.00;5.00;;;;;9.15;51.14;101155.22;2441730;28;45278;-85
2022/04/11 03:49:52;;;;;;;;;4.00;4.00;;;;;9.15;51.04;101158.72;2443481;28;47304;-86
2022/04/11 03:51:03;;;;;;;;;6.00;4.75;;;;;9.13;51.41;101147.41;2447314;28;45538;-84
2022/04/11 03:52:13;;;;;;;;;5.00;5.00;;;;;9.10;50.83;101150.09;2450590;28;45365;-83
2022/04/11 03:53:24;;;;;;;;;7.00;4.25;;;;;9.13;50.98;101160.53;2451492;27;45460;-87
2022/04/11 03:54:34;;;;;;;;;5.00;5.00;;;;;9.12;51.63;101153.53;2458753;27;47054;-86
2022/04/11 03:55:44;;;;;;;;;3.00;3.00;;;;;9.11;51.30;101149.19;2447849;28;44716;-88
2022/04/11 03:56:55;;;;;;;;;3.75;3.75;;;;;9.09;51.38;101145.72;2442688;28;46433;-87
2022/04/11 03:58:05;;;;;;;;;4.00;4.00;;;;;9.07;51.78;101135.28;2451636;27;45256;-87
2022/04/11 03:59:15;;;;;;;;;3.00;3.00;;;;;9.09;51.06;101137.84;2450855;27;45596;-87
2022/04/11 04:00:26;;;;;;;;;5.00;4.00;;;;;9.05;51.69;101137.06;2460535;27;45294;-84
2022/04/11 04:01:37;;;;;;;;;4.25;4.25;;;;;9.06;51.42;101135.31;2450267;27;47201;-85
2022/04/11 04:02:47;;;;;;;;;5.00;4.00;;;;;9.05;51.00;101130.94;2433448;28;45210;-87
2022/04/11 04:03:57;;;;;;;;;4.00;4.00;;;;;9.06;51.13;101140.56;2433750;28;47190;-85
2022/04/11 04:05:08;;;;;;;;;9.00;6.25;;;;;9.04;51.07;101129.25;2441493;28;44762;-86
2022/04/11 04:06:20;;;;;;;;;4.25;4.25;;;;;9.04;51.11;101124.00;2446488;28;45490;-85
2022/04/11 04:07:30;;;;;;;;;4.25;3.75;;;;;9.03;51.13;101125.75;2450936;27;45176;-85
2022/04/11 04:08:40;;;;;;;;;4.00;4.00;;;;;9.03;51.51;101130.13;2441664;28;46174;-85
2022/04/11 04:09:51;;;;;;;;;4.50;4.00;;;;;9.02;51.45;101125.75;2441605;28;45243;-83
2022/04/11 04:11:02;;;;;;;;;4.75;4.00;;;;;9.02;51.03;101120.53;2441951;28;46217;-86
2022/04/11 04:12:12;;;;;;;;;4.75;4.75;;;;;9.02;51.00;101120.53;2441745;28;44677;-85
2022/04/11 04:13:22;;;;;;;;;7.50;5.00;;;;;9.02;51.05;101125.75;2446348;28;45604;-86
2022/04/11 04:14:36;;;;;;;;;6.25;5.00;;;;;9.00;51.39;101118.81;2442326;27;45194;-86
2022/04/11 04:15:47;;;;;;;;;4.75;4.75;;;;;9.00;51.09;101121.44;2443176;27;45565;-83
2022/04/11 04:16:57;;;;;;;;;3.75;3.75;;;;;9.02;51.09;101117.91;2447291;27;45268;-83
2022/04/11 04:18:07;;;;;;;;;6.25;4.75;;;;;9.00;50.88;101118.81;2450830;28;45256;-86
2022/04/11 04:19:18;;;;;;;;;4.50;4.50;;;;;9.00;51.10;101123.19;2450481;28;45381;-86
2022/04/11 04:20:28;;;;;;;;;4.00;4.00;;;;;8.97;50.83;101118.00;2447756;28;46204;-87
2022/04/11 04:21:38;;;;;;;;;5.00;3.50;;;;;8.97;50.55;101118.88;2440899;28;44725;-86
2022/04/11 04:22:49;;;;;;;;;6.00;6.00;;;;;8.97;50.93;101124.09;2440875;28;45258;-86
2022/04/11 04:23:59;;;;;;;;;7.50;5.00;;;;;8.96;51.20;101117.13;2445132;28;45294;-86
2022/04/11 04:25:09;;;;;;;;;6.25;4.50;;;;;8.96;51.49;101117.13;2451380;27;46547;-86
2022/04/11 04:26:20;;;;;;;;;6.00;4.00;;;;;8.96;51.22;101117.13;2450529;28;45243;-86
2022/04/11 04:27:30;;;;;;;;;8.00;6.00;;;;;8.96;50.77;101117.13;2450629;28;46054;-87
2022/04/11 04:28:40;;;;;;;;;5.25;4.00;;;;;8.95;50.68;101115.41;2450385;28;45307;-82
2022/04/11 04:29:51;;;;;;;;;5.75;4.75;;;;;8.94;51.36;101105.81;2443527;28;46037;-82
2022/04/11 04:31:01;;;;;;;;;3.00;3.00;;;;;8.93;51.12;101105.84;2442734;28;44675;-85
2022/04/11 04:32:11;;;;;;;;;5.00;5.00;;;;;8.93;51.22;101104.09;2441469;28;45336;-86
2022/04/11 04:33:22;;;;;;;;;4.50;4.50;;;;;8.93;50.62;101108.47;2441634;28;45162;-86
2022/04/11 04:34:32;;;;;;;;;5.25;4.00;;;;;8.93;50.97;101108.47;2448441;28;47310;-85
2022/04/11 04:35:42;;;;;;;;;7.00;4.00;;;;;8.92;50.96;101107.59;2453166;27;44588;-81
2022/04/11 04:36:53;;;;;;;;;5.25;3.25;;;;;8.93;51.06;101114.59;2457101;27;45992;-81
2022/04/11 04:38:03;;;;;;;;;4.75;4.75;;;;;8.92;50.79;101112.84;2440858;28;45287;-81
2022/04/11 04:39:14;;;;;;;;;7.00;5.00;;;;;8.94;51.13;101100.56;2440433;28;47328;-81
2022/04/11 04:40:24;;;;;;;;;3.00;3.00;;;;;8.91;50.91;101099.78;2436470;28;45452;-82
2022/04/11 04:41:35;;;;;;;;;5.00;5.00;;;;;8.91;51.55;101100.66;2441140;28;45386;-81
2022/04/11 04:42:45;;;;;;;;;5.00;5.00;;;;;8.92;51.28;101097.13;2441819;28;45382;-82
2022/04/11 04:43:55;;;;;;;;;5.00;4.00;;;;;8.91;51.26;101103.28;2447754;28;47043;-81
2022/04/11 04:45:06;;;;;;;;;6.00;5.00;;;;;8.90;50.86;101091.03;2440972;28;45346;-81
2022/04/11 04:46:17;;;;;;;;;5.00;4.00;;;;;8.91;51.18;101100.66;2441350;28;46434;-81
2022/04/11 04:47:27;;;;;;;;;5.50;4.75;;;;;8.91;51.22;101099.78;2441546;28;45147;-81
2022/04/11 04:48:38;;;;;;;;;5.00;4.75;;;;;8.89;51.23;101097.16;2448546;28;48007;-87
2022/04/11 04:49:48;;;;;;;;;5.75;4.25;;;;;8.89;50.49;101099.78;2450551;28;45266;-87
2022/04/11 04:50:59;;;;;;;;;3.50;3.50;;;;;8.89;51.19;101091.94;2445888;28;48249;-86
2022/04/11 04:52:09;;;;;;;;;4.75;4.75;;;;;8.89;51.31;101094.53;2444058;27;45234;-87
2022/04/11 04:53:20;;;;;;;;;5.25;5.00;;;;;8.89;51.10;101099.78;2455487;27;46446;-86
2022/04/11 04:54:30;;;;;;;;;4.75;4.75;;;;;8.89;51.01;101100.66;2446176;28;45435;-87
2022/04/11 04:55:40;;;;;;;;;5.75;4.25;;;;;8.91;51.21;101107.66;2440137;28;46274;-87
2022/04/11 04:56:51;;;;;;;;;6.25;4.25;;;;;8.89;50.88;101105.91;2442100;28;45153;-87
2022/04/11 04:58:01;;;;;;;;;7.00;5.25;;;;;8.87;50.45;101104.19;2440834;28;45448;-87
2022/04/11 04:59:11;;;;;;;;;5.25;5.00;;;;;8.87;50.73;101102.44;2440069;28;45222;-82
2022/04/11 05:00:22;;;;;;;;;4.50;4.50;;;;;8.86;51.05;101110.34;2446639;28;45226;-82
2022/04/11 05:01:32;;;;;;;;;3.00;3.00;;;;;8.87;50.70;101106.81;2446701;27;45148;-82
2022/04/11 05:02:43;;;;;;;;;4.25;4.00;;;;;8.87;51.20;101109.44;2442734;28;46159;-82
2022/04/11 05:03:54;;;;;;;;;5.75;4.75;;;;;8.86;50.95;101105.13;2447439;28;45354;-84
2022/04/11 05:05:09;;;;;;;;;7.00;5.25;;;;;8.86;50.65;101110.34;2443681;28;45270;-84
2022/04/11 05:06:22;;;;;;;;;4.25;4.25;;;;;8.86;51.05;101120.84;2443641;28;45260;-84
2022/04/11 05:07:32;;;;;;;;;3.00;3.00;;;;;8.84;50.80;101125.25;2449295;28;45286;-88
2022/04/11 05:08:43;;;;;;;;;6.00;4.75;;;;;8.84;51.05;101122.63;2451114;27;45265;-89
2022/04/11 05:09:53;;;;;;;;;5.00;5.00;;;;;8.84;51.51;101125.25;2443727;27;45162;-88
2022/04/11 05:11:03;;;;;;;;;5.25;5.25;;;;;8.83;51.05;101128.75;2459077;27;45231;-88
2022/04/11 05:12:14;;;;;;;;;6.75;4.75;;;;;8.81;51.77;101126.19;2457389;27;46223;-88
2022/04/11 05:13:24;;;;;;;;;5.25;5.00;;;;;8.81;51.09;101133.19;2445844;27;45457;-84
2022/04/11 05:14:35;;;;;;;;;5.00;5.00;;;;;8.81;51.53;101127.94;2443045;28;46330;-84
2022/04/11 05:15:46;;;;;;;;;7.25;4.75;;;;;8.79;51.52;101125.31;2451108;28;45224;-83
2022/04/11 05:16:56;;;;;;;;;6.00;4.75;;;;;8.79;51.23;101127.94;2442140;28;45329;-85
2022/04/11 05:18:07;;;;;;;;;7.00;6.75;;;;;8.80;51.21;101120.94;2442512;28;45428;-84
2022/04/11 05:19:17;;;;;;;;;5.00;5.00;;;;;8.77;51.71;101112.25;2447870;28;45350;-83
2022/04/11 05:20:27;;;;;;;;;5.25;5.25;;;;;8.76;51.80;101115.78;2451168;27;45289;-84
2022/04/11 05:21:38;;;;;;;;;8.25;6.00;;;;;8.75;51.79;101113.19;2442938;28;45474;-84
2022/04/11 05:22:48;;;;;;;;;9.00;6.00;;;;;8.73;51.91;101115.84;2442754;28;45255;-87
2022/04/11 05:23:58;;;;;;;;;4.00;4.00;;;;;8.74;51.65;101112.31;2443180;28;46181;-91
2022/04/11 05:25:09;;;;;;;;;5.75;5.00;;;;;8.75;51.65;101111.44;2448053;28;45223;-92
2022/04/11 05:26:19;;;;;;;;;6.75;5.50;;;;;8.71;51.29;101115.00;2451986;28;47211;-92
2022/04/11 05:27:30;;;;;;;;;5.00;5.00;;;;;8.73;50.97;101114.97;2441796;28;45224;-89
2022/04/11 05:28:40;;;;;;;;;5.50;5.00;;;;;8.71;51.67;101108.91;2451682;27;46993;-90
2022/04/11 05:29:50;;;;;;;;;4.75;4.75;;;;;8.70;51.68;101110.66;2459424;27;45331;-87
2022/04/11 05:31:01;;;;;;;;;8.00;6.00;;;;;8.70;51.51;101109.78;2452588;27;45360;-87
2022/04/11 05:32:11;;;;;;;;;6.50;5.50;;;;;8.69;51.58;101105.44;2451723;28;45243;-87